Hatfield, Wisconsin
Current Conditions -  °F | °C
As of 9:55 AM on Friday 31 Oct 2014 (Local Time) from KBCK Reporting Station
Overcast Overcast  
Wind Chill: 25°   Ceiling: 3100
Heat Index: 33°   Visibility: 10mi
Dew Point: 21°   Wind: 12mph
Humidity: 59%   Direction: 340°NNW
Pressure: 30.42"   Gusts: 18mph
Location:  44.4455°N, 90.808°W
Report Text: KBCK 311455Z AUTO 34010G16KT 10SM OVC031 01/M06 A3042 RMK AO2 T00081063
Loading
Personal Weather Stations






























Interactive Weather Map
Tropical Storm Tracking
New forecast layout! Learn more

10-Day Weather Forecast

Advertisements
Track Severe Weather on mobile